sensor_id;sensor_type;location;lat;lon;timestamp;P1;durP1;ratioP1;P2;durP2;ratioP2
62654;SDS011;48717;55.556;37.816;2023-06-22T00:00:22;7.65;;;4.82;;
62654;SDS011;48717;55.556;37.816;2023-06-22T00:02:49;11.88;;;5.28;;
62654;SDS011;48717;55.556;37.816;2023-06-22T00:05:16;8.43;;;4.50;;
62654;SDS011;48717;55.556;37.816;2023-06-22T00:07:43;8.13;;;4.35;;
62654;SDS011;48717;55.556;37.816;2023-06-22T00:10:11;10.10;;;5.03;;
62654;SDS011;48717;55.556;37.816;2023-06-22T00:12:38;8.32;;;4.80;;
62654;SDS011;48717;55.556;37.816;2023-06-22T00:15:05;10.65;;;6.30;;
62654;SDS011;48717;55.556;37.816;2023-06-22T00:17:32;12.45;;;6.80;;
62654;SDS011;48717;55.556;37.816;2023-06-22T00:19:59;13.25;;;6.78;;
62654;SDS011;48717;55.556;37.816;2023-06-22T00:22:29;13.07;;;7.18;;
62654;SDS011;48717;55.556;37.816;2023-06-22T00:24:56;10.60;;;7.10;;
62654;SDS011;48717;55.556;37.816;2023-06-22T00:27:23;8.18;;;5.80;;
62654;SDS011;48717;55.556;37.816;2023-06-22T00:29:51;7.63;;;5.07;;
62654;SDS011;48717;55.556;37.816;2023-06-22T00:32:18;10.73;;;5.78;;
62654;SDS011;48717;55.556;37.816;2023-06-22T00:34:47;8.80;;;5.25;;
62654;SDS011;48717;55.556;37.816;2023-06-22T00:37:14;7.93;;;5.05;;
62654;SDS011;48717;55.556;37.816;2023-06-22T00:39:42;8.07;;;5.28;;
62654;SDS011;48717;55.556;37.816;2023-06-22T00:42:11;12.00;;;5.13;;
62654;SDS011;48717;55.556;37.816;2023-06-22T00:44:38;10.32;;;5.43;;
62654;SDS011;48717;55.556;37.816;2023-06-22T00:47:05;6.82;;;4.72;;
62654;SDS011;48717;55.556;37.816;2023-06-22T00:49:33;10.05;;;5.07;;
62654;SDS011;48717;55.556;37.816;2023-06-22T00:52:01;8.60;;;5.07;;
62654;SDS011;48717;55.556;37.816;2023-06-22T00:54:29;7.20;;;5.15;;
62654;SDS011;48717;55.556;37.816;2023-06-22T00:56:57;10.50;;;5.63;;
62654;SDS011;48717;55.556;37.816;2023-06-22T00:59:25;8.68;;;5.53;;
62654;SDS011;48717;55.556;37.816;2023-06-22T01:01:54;11.07;;;6.82;;
62654;SDS011;48717;55.556;37.816;2023-06-22T01:04:23;12.68;;;6.47;;
62654;SDS011;48717;55.556;37.816;2023-06-22T01:07:03;13.37;;;8.77;;
62654;SDS011;48717;55.556;37.816;2023-06-22T01:09:35;12.38;;;6.70;;
62654;SDS011;48717;55.556;37.816;2023-06-22T01:12:14;10.43;;;6.72;;
62654;SDS011;48717;55.556;37.816;2023-06-22T01:14:47;11.77;;;7.10;;
62654;SDS011;48717;55.556;37.816;2023-06-22T01:17:22;19.40;;;11.48;;
62654;SDS011;48717;55.556;37.816;2023-06-22T01:19:53;10.85;;;7.55;;
62654;SDS011;48717;55.556;37.816;2023-06-22T01:22:25;13.88;;;7.68;;
62654;SDS011;48717;55.556;37.816;2023-06-22T01:25:06;11.00;;;7.22;;
62654;SDS011;48717;55.556;37.816;2023-06-22T01:31:00;17.77;;;8.80;;
62654;SDS011;48717;55.556;37.816;2023-06-22T01:33:35;16.90;;;10.20;;
62654;SDS011;48717;55.556;37.816;2023-06-22T01:36:05;14.95;;;8.88;;
62654;SDS011;48717;55.556;37.816;2023-06-22T01:38:34;17.52;;;8.35;;
62654;SDS011;48717;55.556;37.816;2023-06-22T01:41:02;16.92;;;8.13;;
62654;SDS011;48717;55.556;37.816;2023-06-22T01:43:30;14.15;;;8.65;;
62654;SDS011;48717;55.556;37.816;2023-06-22T01:45:59;12.30;;;7.43;;
62654;SDS011;48717;55.556;37.816;2023-06-22T01:48:28;13.20;;;8.30;;
62654;SDS011;48717;55.556;37.816;2023-06-22T01:50:56;11.48;;;7.32;;
62654;SDS011;48717;55.556;37.816;2023-06-22T01:53:24;11.65;;;7.03;;
62654;SDS011;48717;55.556;37.816;2023-06-22T01:55:51;11.55;;;7.03;;
62654;SDS011;48717;55.556;37.816;2023-06-22T01:58:20;14.55;;;7.93;;
62654;SDS011;48717;55.556;37.816;2023-06-22T02:01:00;14.25;;;7.00;;
62654;SDS011;48717;55.556;37.816;2023-06-22T02:03:41;21.88;;;11.70;;
62654;SDS011;48717;55.556;37.816;2023-06-22T02:06:15;12.82;;;7.38;;
62654;SDS011;48717;55.556;37.816;2023-06-22T02:08:48;12.85;;;7.97;;
62654;SDS011;48717;55.556;37.816;2023-06-22T02:11:18;14.70;;;8.20;;
62654;SDS011;48717;55.556;37.816;2023-06-22T02:13:49;14.20;;;7.90;;
62654;SDS011;48717;55.556;37.816;2023-06-22T02:16:17;16.23;;;8.27;;
62654;SDS011;48717;55.556;37.816;2023-06-22T02:18:49;16.02;;;8.00;;
62654;SDS011;48717;55.556;37.816;2023-06-22T02:21:21;15.18;;;8.52;;
62654;SDS011;48717;55.556;37.816;2023-06-22T02:23:49;15.27;;;8.15;;
62654;SDS011;48717;55.556;37.816;2023-06-22T02:26:16;13.73;;;7.68;;
62654;SDS011;48717;55.556;37.816;2023-06-22T02:28:44;16.58;;;7.80;;
62654;SDS011;48717;55.556;37.816;2023-06-22T02:31:16;11.70;;;7.38;;
62654;SDS011;48717;55.556;37.816;2023-06-22T02:33:47;13.15;;;6.70;;
62654;SDS011;48717;55.556;37.816;2023-06-22T02:36:18;19.42;;;7.07;;
62654;SDS011;48717;55.556;37.816;2023-06-22T02:38:48;13.45;;;6.82;;
62654;SDS011;48717;55.556;37.816;2023-06-22T02:41:15;12.77;;;6.82;;
62654;SDS011;48717;55.556;37.816;2023-06-22T02:43:45;11.73;;;6.67;;
62654;SDS011;48717;55.556;37.816;2023-06-22T02:46:13;16.35;;;7.40;;
62654;SDS011;48717;55.556;37.816;2023-06-22T02:48:41;12.88;;;7.28;;
62654;SDS011;48717;55.556;37.816;2023-06-22T02:51:11;14.40;;;7.57;;
62654;SDS011;48717;55.556;37.816;2023-06-22T02:53:39;13.43;;;7.43;;
62654;SDS011;48717;55.556;37.816;2023-06-22T02:56:06;17.35;;;7.60;;
62654;SDS011;48717;55.556;37.816;2023-06-22T03:01:09;17.67;;;7.53;;
62654;SDS011;48717;55.556;37.816;2023-06-22T03:03:42;17.50;;;10.02;;
62654;SDS011;48717;55.556;37.816;2023-06-22T03:06:09;15.90;;;9.80;;
62654;SDS011;48717;55.556;37.816;2023-06-22T03:08:41;14.70;;;9.30;;
62654;SDS011;48717;55.556;37.816;2023-06-22T03:11:09;16.65;;;8.23;;
62654;SDS011;48717;55.556;37.816;2023-06-22T03:13:37;9.73;;;7.05;;
62654;SDS011;48717;55.556;37.816;2023-06-22T03:16:06;13.63;;;6.72;;
62654;SDS011;48717;55.556;37.816;2023-06-22T03:18:33;12.40;;;7.28;;
62654;SDS011;48717;55.556;37.816;2023-06-22T03:21:00;12.15;;;6.80;;
62654;SDS011;48717;55.556;37.816;2023-06-22T03:23:30;14.32;;;6.93;;
62654;SDS011;48717;55.556;37.816;2023-06-22T03:25:58;11.95;;;7.55;;
62654;SDS011;48717;55.556;37.816;2023-06-22T03:28:25;15.20;;;7.45;;
62654;SDS011;48717;55.556;37.816;2023-06-22T03:30:52;11.23;;;6.97;;
62654;SDS011;48717;55.556;37.816;2023-06-22T03:33:19;13.57;;;7.68;;
62654;SDS011;48717;55.556;37.816;2023-06-22T03:35:46;20.67;;;10.75;;
62654;SDS011;48717;55.556;37.816;2023-06-22T03:38:13;14.85;;;7.30;;
62654;SDS011;48717;55.556;37.816;2023-06-22T03:40:41;12.82;;;7.10;;
62654;SDS011;48717;55.556;37.816;2023-06-22T03:43:08;14.30;;;7.60;;
62654;SDS011;48717;55.556;37.816;2023-06-22T03:45:35;21.60;;;8.95;;
62654;SDS011;48717;55.556;37.816;2023-06-22T03:48:02;17.77;;;7.93;;
62654;SDS011;48717;55.556;37.816;2023-06-22T03:50:31;12.88;;;7.70;;
62654;SDS011;48717;55.556;37.816;2023-06-22T03:52:58;20.30;;;8.88;;
62654;SDS011;48717;55.556;37.816;2023-06-22T03:55:25;27.23;;;12.48;;
62654;SDS011;48717;55.556;37.816;2023-06-22T03:57:53;16.13;;;8.25;;
62654;SDS011;48717;55.556;37.816;2023-06-22T04:00:23;27.83;;;15.32;;
62654;SDS011;48717;55.556;37.816;2023-06-22T04:02:50;19.83;;;10.40;;
62654;SDS011;48717;55.556;37.816;2023-06-22T04:05:18;25.35;;;12.85;;
62654;SDS011;48717;55.556;37.816;2023-06-22T04:07:45;14.75;;;7.20;;
62654;SDS011;48717;55.556;37.816;2023-06-22T04:10:13;17.67;;;6.97;;
62654;SDS011;48717;55.556;37.816;2023-06-22T04:12:45;14.00;;;6.80;;
62654;SDS011;48717;55.556;37.816;2023-06-22T04:15:13;15.20;;;7.00;;
62654;SDS011;48717;55.556;37.816;2023-06-22T04:17:41;16.10;;;7.00;;
62654;SDS011;48717;55.556;37.816;2023-06-22T04:20:08;22.65;;;8.88;;
62654;SDS011;48717;55.556;37.816;2023-06-22T04:22:35;34.22;;;17.50;;
62654;SDS011;48717;55.556;37.816;2023-06-22T04:25:03;18.10;;;8.10;;
62654;SDS011;48717;55.556;37.816;2023-06-22T04:27:30;16.40;;;7.70;;
62654;SDS011;48717;55.556;37.816;2023-06-22T04:29:57;20.73;;;9.45;;
62654;SDS011;48717;55.556;37.816;2023-06-22T04:32:30;15.05;;;7.10;;
62654;SDS011;48717;55.556;37.816;2023-06-22T04:35:01;21.77;;;7.88;;
62654;SDS011;48717;55.556;37.816;2023-06-22T04:37:33;18.63;;;7.95;;
62654;SDS011;48717;55.556;37.816;2023-06-22T04:40:01;18.13;;;6.85;;
62654;SDS011;48717;55.556;37.816;2023-06-22T04:42:30;17.25;;;6.88;;
62654;SDS011;48717;55.556;37.816;2023-06-22T04:44:58;25.95;;;7.88;;
62654;SDS011;48717;55.556;37.816;2023-06-22T04:47:30;17.17;;;7.30;;
62654;SDS011;48717;55.556;37.816;2023-06-22T04:49:57;19.25;;;8.80;;
62654;SDS011;48717;55.556;37.816;2023-06-22T04:52:24;18.15;;;7.18;;
62654;SDS011;48717;55.556;37.816;2023-06-22T04:54:52;20.50;;;7.30;;
62654;SDS011;48717;55.556;37.816;2023-06-22T04:57:22;16.90;;;7.03;;
62654;SDS011;48717;55.556;37.816;2023-06-22T04:59:58;18.83;;;8.20;;
62654;SDS011;48717;55.556;37.816;2023-06-22T05:02:40;15.13;;;7.63;;
62654;SDS011;48717;55.556;37.816;2023-06-22T05:07:35;16.50;;;7.22;;
62654;SDS011;48717;55.556;37.816;2023-06-22T05:10:03;19.23;;;8.68;;
62654;SDS011;48717;55.556;37.816;2023-06-22T05:12:31;22.13;;;6.70;;
62654;SDS011;48717;55.556;37.816;2023-06-22T05:14:59;15.82;;;6.70;;
62654;SDS011;48717;55.556;37.816;2023-06-22T05:17:31;10.55;;;6.50;;
62654;SDS011;48717;55.556;37.816;2023-06-22T05:19:58;17.02;;;6.28;;
62654;SDS011;48717;55.556;37.816;2023-06-22T05:22:25;19.50;;;6.20;;
62654;SDS011;48717;55.556;37.816;2023-06-22T05:24:52;14.80;;;6.05;;
62654;SDS011;48717;55.556;37.816;2023-06-22T05:27:22;13.82;;;6.40;;
62654;SDS011;48717;55.556;37.816;2023-06-22T05:29:49;19.08;;;6.63;;
62654;SDS011;48717;55.556;37.816;2023-06-22T05:32:17;18.65;;;6.63;;
62654;SDS011;48717;55.556;37.816;2023-06-22T05:34:44;19.42;;;6.18;;
62654;SDS011;48717;55.556;37.816;2023-06-22T05:37:11;13.35;;;5.82;;
62654;SDS011;48717;55.556;37.816;2023-06-22T05:39:39;16.10;;;6.18;;
62654;SDS011;48717;55.556;37.816;2023-06-22T05:42:07;14.35;;;5.40;;
62654;SDS011;48717;55.556;37.816;2023-06-22T05:44:36;16.73;;;6.10;;
62654;SDS011;48717;55.556;37.816;2023-06-22T05:47:05;14.67;;;5.20;;
62654;SDS011;48717;55.556;37.816;2023-06-22T05:49:33;13.55;;;5.03;;
62654;SDS011;48717;55.556;37.816;2023-06-22T05:52:00;18.60;;;5.97;;
62654;SDS011;48717;55.556;37.816;2023-06-22T05:54:28;18.38;;;5.32;;
62654;SDS011;48717;55.556;37.816;2023-06-22T05:56:56;23.77;;;5.88;;
62654;SDS011;48717;55.556;37.816;2023-06-22T05:59:23;16.50;;;5.30;;
62654;SDS011;48717;55.556;37.816;2023-06-22T06:01:50;17.67;;;5.00;;
62654;SDS011;48717;55.556;37.816;2023-06-22T06:04:18;17.33;;;4.85;;
62654;SDS011;48717;55.556;37.816;2023-06-22T06:06:46;17.35;;;5.03;;
62654;SDS011;48717;55.556;37.816;2023-06-22T06:09:14;14.85;;;4.72;;
62654;SDS011;48717;55.556;37.816;2023-06-22T06:11:42;18.60;;;4.75;;
62654;SDS011;48717;55.556;37.816;2023-06-22T06:14:09;7.95;;;4.18;;
62654;SDS011;48717;55.556;37.816;2023-06-22T06:16:36;13.23;;;4.53;;
62654;SDS011;48717;55.556;37.816;2023-06-22T06:19:03;9.75;;;4.32;;
62654;SDS011;48717;55.556;37.816;2023-06-22T06:21:30;10.15;;;4.40;;
62654;SDS011;48717;55.556;37.816;2023-06-22T06:23:58;10.05;;;4.25;;
62654;SDS011;48717;55.556;37.816;2023-06-22T06:26:25;14.52;;;4.30;;
62654;SDS011;48717;55.556;37.816;2023-06-22T06:28:59;9.07;;;3.83;;
62654;SDS011;48717;55.556;37.816;2023-06-22T06:31:27;7.90;;;3.78;;
62654;SDS011;48717;55.556;37.816;2023-06-22T06:33:55;7.28;;;3.40;;
62654;SDS011;48717;55.556;37.816;2023-06-22T06:36:25;6.38;;;3.40;;
62654;SDS011;48717;55.556;37.816;2023-06-22T06:38:52;6.90;;;3.80;;
62654;SDS011;48717;55.556;37.816;2023-06-22T06:41:20;6.90;;;3.80;;
62654;SDS011;48717;55.556;37.816;2023-06-22T06:43:47;14.82;;;4.38;;
62654;SDS011;48717;55.556;37.816;2023-06-22T06:46:14;18.58;;;4.40;;
62654;SDS011;48717;55.556;37.816;2023-06-22T06:48:42;22.42;;;5.15;;
62654;SDS011;48717;55.556;37.816;2023-06-22T06:51:09;16.20;;;4.32;;
62654;SDS011;48717;55.556;37.816;2023-06-22T06:53:39;7.68;;;3.90;;
62654;SDS011;48717;55.556;37.816;2023-06-22T06:56:14;11.25;;;4.00;;
62654;SDS011;48717;55.556;37.816;2023-06-22T06:58:41;24.80;;;4.88;;
62654;SDS011;48717;55.556;37.816;2023-06-22T07:01:09;16.10;;;4.60;;
62654;SDS011;48717;55.556;37.816;2023-06-22T07:03:36;12.85;;;3.65;;
62654;SDS011;48717;55.556;37.816;2023-06-22T07:06:03;12.27;;;4.13;;
62654;SDS011;48717;55.556;37.816;2023-06-22T07:08:30;5.53;;;3.90;;
62654;SDS011;48717;55.556;37.816;2023-06-22T07:10:58;26.25;;;4.97;;
62654;SDS011;48717;55.556;37.816;2023-06-22T07:13:25;8.57;;;3.72;;
62654;SDS011;48717;55.556;37.816;2023-06-22T07:15:52;7.32;;;3.50;;
62654;SDS011;48717;55.556;37.816;2023-06-22T07:18:20;9.13;;;3.83;;
62654;SDS011;48717;55.556;37.816;2023-06-22T07:20:50;10.88;;;3.80;;
62654;SDS011;48717;55.556;37.816;2023-06-22T07:23:18;8.02;;;3.83;;
62654;SDS011;48717;55.556;37.816;2023-06-22T07:25:45;5.40;;;3.22;;
62654;SDS011;48717;55.556;37.816;2023-06-22T07:28:12;5.93;;;3.38;;
62654;SDS011;48717;55.556;37.816;2023-06-22T07:30:40;7.50;;;3.95;;
62654;SDS011;48717;55.556;37.816;2023-06-22T07:33:07;4.43;;;3.42;;
62654;SDS011;48717;55.556;37.816;2023-06-22T07:35:41;5.57;;;3.70;;
62654;SDS011;48717;55.556;37.816;2023-06-22T07:38:19;6.22;;;3.58;;
62654;SDS011;48717;55.556;37.816;2023-06-22T07:40:46;8.70;;;3.88;;
62654;SDS011;48717;55.556;37.816;2023-06-22T07:43:14;6.47;;;3.70;;
62654;SDS011;48717;55.556;37.816;2023-06-22T07:45:47;5.30;;;3.20;;
62654;SDS011;48717;55.556;37.816;2023-06-22T07:48:22;6.13;;;3.72;;
62654;SDS011;48717;55.556;37.816;2023-06-22T07:50:50;7.10;;;4.28;;
62654;SDS011;48717;55.556;37.816;2023-06-22T07:53:17;5.22;;;3.55;;
62654;SDS011;48717;55.556;37.816;2023-06-22T07:55:44;6.22;;;4.05;;
62654;SDS011;48717;55.556;37.816;2023-06-22T07:58:15;6.30;;;3.90;;
62654;SDS011;48717;55.556;37.816;2023-06-22T08:00:47;7.07;;;3.92;;
62654;SDS011;48717;55.556;37.816;2023-06-22T08:03:17;5.53;;;3.78;;
62654;SDS011;48717;55.556;37.816;2023-06-22T08:05:48;6.38;;;3.88;;
62654;SDS011;48717;55.556;37.816;2023-06-22T08:10:45;6.63;;;4.05;;
62654;SDS011;48717;55.556;37.816;2023-06-22T08:13:13;5.57;;;3.90;;
62654;SDS011;48717;55.556;37.816;2023-06-22T08:15:40;5.65;;;4.07;;
62654;SDS011;48717;55.556;37.816;2023-06-22T08:18:07;8.55;;;3.83;;
62654;SDS011;48717;55.556;37.816;2023-06-22T08:20:34;8.70;;;3.42;;
62654;SDS011;48717;55.556;37.816;2023-06-22T08:23:02;10.60;;;3.58;;
62654;SDS011;48717;55.556;37.816;2023-06-22T08:25:36;4.25;;;3.47;;
62654;SDS011;48717;55.556;37.816;2023-06-22T08:28:10;5.45;;;3.45;;
62654;SDS011;48717;55.556;37.816;2023-06-22T08:30:37;6.63;;;3.80;;
62654;SDS011;48717;55.556;37.816;2023-06-22T08:33:04;5.38;;;3.17;;
62654;SDS011;48717;55.556;37.816;2023-06-22T08:35:35;6.85;;;3.40;;
62654;SDS011;48717;55.556;37.816;2023-06-22T08:38:02;10.25;;;5.05;;
62654;SDS011;48717;55.556;37.816;2023-06-22T08:40:30;5.93;;;3.45;;
62654;SDS011;48717;55.556;37.816;2023-06-22T08:42:58;7.28;;;3.65;;
62654;SDS011;48717;55.556;37.816;2023-06-22T08:45:26;6.97;;;3.70;;
62654;SDS011;48717;55.556;37.816;2023-06-22T08:47:56;15.50;;;3.75;;
62654;SDS011;48717;55.556;37.816;2023-06-22T08:50:23;8.05;;;3.10;;
62654;SDS011;48717;55.556;37.816;2023-06-22T08:52:50;4.75;;;3.15;;
62654;SDS011;48717;55.556;37.816;2023-06-22T08:55:18;9.40;;;3.60;;
62654;SDS011;48717;55.556;37.816;2023-06-22T08:57:45;14.20;;;4.05;;
62654;SDS011;48717;55.556;37.816;2023-06-22T09:00:12;7.03;;;3.65;;
62654;SDS011;48717;55.556;37.816;2023-06-22T09:02:47;7.30;;;3.72;;
62654;SDS011;48717;55.556;37.816;2023-06-22T09:05:15;6.20;;;3.70;;
62654;SDS011;48717;55.556;37.816;2023-06-22T09:07:43;4.15;;;3.30;;
62654;SDS011;48717;55.556;37.816;2023-06-22T09:10:10;7.97;;;3.50;;
62654;SDS011;48717;55.556;37.816;2023-06-22T09:12:38;7.00;;;3.65;;
62654;SDS011;48717;55.556;37.816;2023-06-22T09:15:06;7.97;;;4.93;;
62654;SDS011;48717;55.556;37.816;2023-06-22T09:17:40;5.30;;;3.78;;
62654;SDS011;48717;55.556;37.816;2023-06-22T09:20:08;17.88;;;5.60;;
62654;SDS011;48717;55.556;37.816;2023-06-22T09:22:37;13.75;;;4.95;;
62654;SDS011;48717;55.556;37.816;2023-06-22T09:25:05;12.88;;;4.00;;
62654;SDS011;48717;55.556;37.816;2023-06-22T09:27:34;24.88;;;5.30;;
62654;SDS011;48717;55.556;37.816;2023-06-22T09:30:01;27.27;;;4.40;;
62654;SDS011;48717;55.556;37.816;2023-06-22T09:32:32;7.18;;;3.92;;
62654;SDS011;48717;55.556;37.816;2023-06-22T09:35:01;14.18;;;4.70;;
62654;SDS011;48717;55.556;37.816;2023-06-22T09:37:32;10.73;;;3.90;;
62654;SDS011;48717;55.556;37.816;2023-06-22T09:40:00;9.77;;;4.35;;
62654;SDS011;48717;55.556;37.816;2023-06-22T09:42:31;13.05;;;4.28;;
62654;SDS011;48717;55.556;37.816;2023-06-22T09:44:58;14.57;;;4.32;;
62654;SDS011;48717;55.556;37.816;2023-06-22T09:47:26;14.95;;;4.07;;
62654;SDS011;48717;55.556;37.816;2023-06-22T09:49:53;12.65;;;4.10;;
62654;SDS011;48717;55.556;37.816;2023-06-22T09:52:22;12.05;;;3.90;;
62654;SDS011;48717;55.556;37.816;2023-06-22T09:54:54;12.50;;;4.30;;
62654;SDS011;48717;55.556;37.816;2023-06-22T09:57:21;11.70;;;3.75;;
62654;SDS011;48717;55.556;37.816;2023-06-22T09:59:48;8.60;;;4.03;;
62654;SDS011;48717;55.556;37.816;2023-06-22T10:02:16;5.80;;;3.20;;
62654;SDS011;48717;55.556;37.816;2023-06-22T10:04:44;7.97;;;3.50;;
62654;SDS011;48717;55.556;37.816;2023-06-22T10:07:12;7.47;;;3.35;;
62654;SDS011;48717;55.556;37.816;2023-06-22T10:09:39;5.72;;;4.10;;
62654;SDS011;48717;55.556;37.816;2023-06-22T10:12:09;4.68;;;3.50;;
62654;SDS011;48717;55.556;37.816;2023-06-22T10:14:37;6.22;;;4.22;;
62654;SDS011;48717;55.556;37.816;2023-06-22T10:17:04;5.88;;;3.80;;
62654;SDS011;48717;55.556;37.816;2023-06-22T10:19:33;4.97;;;3.78;;
62654;SDS011;48717;55.556;37.816;2023-06-22T10:22:04;9.25;;;3.85;;
62654;SDS011;48717;55.556;37.816;2023-06-22T10:24:32;12.02;;;4.07;;
62654;SDS011;48717;55.556;37.816;2023-06-22T10:26:59;14.43;;;4.30;;
62654;SDS011;48717;55.556;37.816;2023-06-22T10:29:26;9.38;;;4.10;;
62654;SDS011;48717;55.556;37.816;2023-06-22T10:31:53;7.25;;;4.18;;
62654;SDS011;48717;55.556;37.816;2023-06-22T10:34:20;13.57;;;4.45;;
62654;SDS011;48717;55.556;37.816;2023-06-22T10:36:48;5.43;;;3.67;;
62654;SDS011;48717;55.556;37.816;2023-06-22T10:39:15;9.27;;;3.92;;
62654;SDS011;48717;55.556;37.816;2023-06-22T10:41:42;7.35;;;3.83;;
62654;SDS011;48717;55.556;37.816;2023-06-22T10:44:09;8.55;;;4.22;;
62654;SDS011;48717;55.556;37.816;2023-06-22T10:46:37;12.52;;;4.05;;
62654;SDS011;48717;55.556;37.816;2023-06-22T10:49:05;7.40;;;4.00;;
62654;SDS011;48717;55.556;37.816;2023-06-22T10:51:32;5.75;;;3.70;;
62654;SDS011;48717;55.556;37.816;2023-06-22T10:54:00;6.93;;;3.92;;
62654;SDS011;48717;55.556;37.816;2023-06-22T10:56:27;7.28;;;3.95;;
62654;SDS011;48717;55.556;37.816;2023-06-22T10:58:54;8.38;;;4.45;;
62654;SDS011;48717;55.556;37.816;2023-06-22T11:01:22;11.82;;;4.72;;
62654;SDS011;48717;55.556;37.816;2023-06-22T11:03:52;7.30;;;4.25;;
62654;SDS011;48717;55.556;37.816;2023-06-22T11:06:19;8.02;;;4.28;;
62654;SDS011;48717;55.556;37.816;2023-06-22T11:08:47;7.65;;;4.10;;
62654;SDS011;48717;55.556;37.816;2023-06-22T11:11:32;7.30;;;4.00;;
62654;SDS011;48717;55.556;37.816;2023-06-22T11:14:00;10.50;;;4.40;;
62654;SDS011;48717;55.556;37.816;2023-06-22T11:16:27;4.70;;;3.65;;
62654;SDS011;48717;55.556;37.816;2023-06-22T11:18:54;15.82;;;4.68;;
62654;SDS011;48717;55.556;37.816;2023-06-22T11:21:22;11.07;;;4.68;;
62654;SDS011;48717;55.556;37.816;2023-06-22T11:23:49;10.57;;;4.32;;
62654;SDS011;48717;55.556;37.816;2023-06-22T11:26:17;5.18;;;3.83;;
62654;SDS011;48717;55.556;37.816;2023-06-22T11:28:44;7.00;;;4.18;;
62654;SDS011;48717;55.556;37.816;2023-06-22T11:31:12;5.22;;;4.30;;
62654;SDS011;48717;55.556;37.816;2023-06-22T11:33:52;14.88;;;5.20;;
62654;SDS011;48717;55.556;37.816;2023-06-22T11:36:19;9.30;;;4.45;;
62654;SDS011;48717;55.556;37.816;2023-06-22T11:38:47;12.10;;;4.47;;
62654;SDS011;48717;55.556;37.816;2023-06-22T11:41:17;14.90;;;4.95;;
62654;SDS011;48717;55.556;37.816;2023-06-22T11:43:44;17.42;;;5.07;;
62654;SDS011;48717;55.556;37.816;2023-06-22T11:46:11;12.60;;;5.07;;
62654;SDS011;48717;55.556;37.816;2023-06-22T11:48:39;7.63;;;4.53;;
62654;SDS011;48717;55.556;37.816;2023-06-22T11:51:06;4.65;;;4.18;;
62654;SDS011;48717;55.556;37.816;2023-06-22T11:53:35;4.78;;;3.70;;
62654;SDS011;48717;55.556;37.816;2023-06-22T11:56:02;18.95;;;5.18;;
62654;SDS011;48717;55.556;37.816;2023-06-22T11:58:29;15.52;;;4.50;;
62654;SDS011;48717;55.556;37.816;2023-06-22T12:00:56;11.57;;;4.25;;
62654;SDS011;48717;55.556;37.816;2023-06-22T12:03:24;6.05;;;3.80;;
62654;SDS011;48717;55.556;37.816;2023-06-22T12:05:51;9.52;;;4.18;;
62654;SDS011;48717;55.556;37.816;2023-06-22T12:08:19;11.23;;;4.20;;
62654;SDS011;48717;55.556;37.816;2023-06-22T12:10:47;13.00;;;4.68;;
62654;SDS011;48717;55.556;37.816;2023-06-22T12:13:15;11.68;;;4.65;;
62654;SDS011;48717;55.556;37.816;2023-06-22T12:15:42;10.05;;;4.13;;
62654;SDS011;48717;55.556;37.816;2023-06-22T12:18:09;5.85;;;4.25;;
62654;SDS011;48717;55.556;37.816;2023-06-22T12:20:37;13.82;;;5.00;;
62654;SDS011;48717;55.556;37.816;2023-06-22T12:23:04;13.57;;;5.03;;
62654;SDS011;48717;55.556;37.816;2023-06-22T12:25:31;15.75;;;4.53;;
62654;SDS011;48717;55.556;37.816;2023-06-22T12:27:58;7.07;;;4.03;;
62654;SDS011;48717;55.556;37.816;2023-06-22T12:30:25;9.85;;;4.97;;
62654;SDS011;48717;55.556;37.816;2023-06-22T12:32:53;12.10;;;4.82;;
62654;SDS011;48717;55.556;37.816;2023-06-22T12:35:22;5.15;;;4.10;;
62654;SDS011;48717;55.556;37.816;2023-06-22T12:37:50;8.38;;;4.57;;
62654;SDS011;48717;55.556;37.816;2023-06-22T12:40:17;11.48;;;4.97;;
62654;SDS011;48717;55.556;37.816;2023-06-22T12:42:45;5.53;;;4.68;;
62654;SDS011;48717;55.556;37.816;2023-06-22T12:45:12;9.82;;;4.65;;
62654;SDS011;48717;55.556;37.816;2023-06-22T12:47:40;9.10;;;4.90;;
62654;SDS011;48717;55.556;37.816;2023-06-22T12:50:07;11.95;;;5.07;;
62654;SDS011;48717;55.556;37.816;2023-06-22T12:52:36;6.75;;;5.15;;
62654;SDS011;48717;55.556;37.816;2023-06-22T12:55:06;8.02;;;5.40;;
62654;SDS011;48717;55.556;37.816;2023-06-22T12:57:34;9.38;;;5.30;;
62654;SDS011;48717;55.556;37.816;2023-06-22T13:00:01;10.30;;;5.32;;
62654;SDS011;48717;55.556;37.816;2023-06-22T13:02:33;8.98;;;4.95;;
62654;SDS011;48717;55.556;37.816;2023-06-22T13:05:02;10.75;;;5.32;;
62654;SDS011;48717;55.556;37.816;2023-06-22T13:07:32;12.57;;;8.73;;
62654;SDS011;48717;55.556;37.816;2023-06-22T13:09:59;8.63;;;4.90;;
62654;SDS011;48717;55.556;37.816;2023-06-22T13:12:31;13.40;;;5.05;;
62654;SDS011;48717;55.556;37.816;2023-06-22T13:14:58;18.42;;;5.70;;
62654;SDS011;48717;55.556;37.816;2023-06-22T13:17:26;10.18;;;4.72;;
62654;SDS011;48717;55.556;37.816;2023-06-22T13:19:53;14.82;;;5.32;;
62654;SDS011;48717;55.556;37.816;2023-06-22T13:22:34;14.52;;;5.45;;
62654;SDS011;48717;55.556;37.816;2023-06-22T13:25:10;7.95;;;5.18;;
62654;SDS011;48717;55.556;37.816;2023-06-22T13:27:40;24.45;;;5.97;;
62654;SDS011;48717;55.556;37.816;2023-06-22T13:30:08;15.97;;;5.43;;
62654;SDS011;48717;55.556;37.816;2023-06-22T13:32:40;16.38;;;5.07;;
62654;SDS011;48717;55.556;37.816;2023-06-22T13:35:11;22.88;;;4.97;;
62654;SDS011;48717;55.556;37.816;2023-06-22T13:37:38;8.65;;;4.68;;
62654;SDS011;48717;55.556;37.816;2023-06-22T13:40:06;16.00;;;5.20;;
62654;SDS011;48717;55.556;37.816;2023-06-22T13:42:34;13.20;;;5.00;;
62654;SDS011;48717;55.556;37.816;2023-06-22T13:45:01;11.38;;;4.88;;
62654;SDS011;48717;55.556;37.816;2023-06-22T13:47:31;12.25;;;4.75;;
62654;SDS011;48717;55.556;37.816;2023-06-22T13:49:59;7.13;;;5.00;;
62654;SDS011;48717;55.556;37.816;2023-06-22T13:52:26;11.48;;;5.80;;
62654;SDS011;48717;55.556;37.816;2023-06-22T13:54:53;20.65;;;5.88;;
62654;SDS011;48717;55.556;37.816;2023-06-22T13:57:21;16.25;;;6.15;;
62654;SDS011;48717;55.556;37.816;2023-06-22T13:59:48;17.60;;;6.43;;
62654;SDS011;48717;55.556;37.816;2023-06-22T14:02:15;21.95;;;6.25;;
62654;SDS011;48717;55.556;37.816;2023-06-22T14:04:43;21.50;;;5.85;;
62654;SDS011;48717;55.556;37.816;2023-06-22T14:07:10;19.63;;;6.60;;
62654;SDS011;48717;55.556;37.816;2023-06-22T14:09:40;10.13;;;5.07;;
62654;SDS011;48717;55.556;37.816;2023-06-22T14:12:07;10.38;;;5.32;;
62654;SDS011;48717;55.556;37.816;2023-06-22T14:14:34;8.95;;;5.40;;
62654;SDS011;48717;55.556;37.816;2023-06-22T14:17:03;15.88;;;5.70;;
62654;SDS011;48717;55.556;37.816;2023-06-22T14:19:30;11.13;;;4.80;;
62654;SDS011;48717;55.556;37.816;2023-06-22T14:21:57;9.82;;;5.47;;
62654;SDS011;48717;55.556;37.816;2023-06-22T14:24:25;9.05;;;4.63;;
62654;SDS011;48717;55.556;37.816;2023-06-22T14:29:22;14.40;;;5.22;;
62654;SDS011;48717;55.556;37.816;2023-06-22T14:31:49;17.95;;;5.65;;
62654;SDS011;48717;55.556;37.816;2023-06-22T14:34:17;15.82;;;5.43;;
62654;SDS011;48717;55.556;37.816;2023-06-22T14:36:44;17.33;;;5.32;;
62654;SDS011;48717;55.556;37.816;2023-06-22T14:39:11;13.32;;;7.28;;
62654;SDS011;48717;55.556;37.816;2023-06-22T14:41:38;7.90;;;4.82;;
62654;SDS011;48717;55.556;37.816;2023-06-22T14:44:05;9.70;;;4.70;;
62654;SDS011;48717;55.556;37.816;2023-06-22T14:46:32;6.22;;;4.93;;